sensor_id;sensor_type;location;lat;lon;timestamp;pressure;altitude;pressure_sealevel;temperature;humidity
29163;BME280;20331;53.144;8.208;2022-09-09T00:08:25;100591.97;;;15.49;100.00
29163;BME280;20331;53.144;8.208;2022-09-09T00:19:02;100588.06;;;15.35;100.00
29163;BME280;20331;53.144;8.208;2022-09-09T00:29:38;100581.41;;;15.31;100.00
29163;BME280;20331;53.144;8.208;2022-09-09T01:01:09;100579.91;;;15.28;100.00
29163;BME280;20331;53.144;8.208;2022-09-09T01:11:52;100583.97;;;15.21;100.00
29163;BME280;20331;53.144;8.208;2022-09-09T01:33:15;100577.59;;;15.14;100.00
29163;BME280;20331;53.144;8.208;2022-09-09T01:43:37;100566.72;;;15.19;100.00
29163;BME280;20331;53.144;8.208;2022-09-09T01:53:58;100557.25;;;15.07;100.00
29163;BME280;20331;53.144;8.208;2022-09-09T02:04:39;100551.50;;;15.22;100.00
29163;BME280;20331;53.144;8.208;2022-09-09T02:15:14;100553.53;;;15.09;100.00
29163;BME280;20331;53.144;8.208;2022-09-09T02:25:38;100550.75;;;15.01;100.00
29163;BME280;20331;53.144;8.208;2022-09-09T02:36:03;100544.63;;;14.91;100.00
29163;BME280;20331;53.144;8.208;2022-09-09T02:46:51;100547.97;;;14.93;100.00
29163;BME280;20331;53.144;8.208;2022-09-09T02:57:26;100547.97;;;14.93;100.00
29163;BME280;20331;53.144;8.208;2022-09-09T03:07:49;100556.66;;;14.94;100.00
29163;BME280;20331;53.144;8.208;2022-09-09T03:18:11;100556.94;;;15.00;100.00
29163;BME280;20331;53.144;8.208;2022-09-09T03:28:33;100561.66;;;14.97;100.00
29163;BME280;20331;53.144;8.208;2022-09-09T03:38:55;100563.69;;;14.84;100.00
29163;BME280;20331;53.144;8.208;2022-09-09T03:49:16;100565.63;;;14.91;100.00
29163;BME280;20331;53.144;8.208;2022-09-09T03:59:38;100580.28;;;14.84;100.00
29163;BME280;20331;53.144;8.208;2022-09-09T04:09:59;100582.44;;;14.79;100.00
29163;BME280;20331;53.144;8.208;2022-09-09T04:20:21;100585.41;;;14.65;100.00
29163;BME280;20331;53.144;8.208;2022-09-09T04:30:43;100586.53;;;14.72;100.00
29163;BME280;20331;53.144;8.208;2022-09-09T04:41:05;100585.16;;;14.68;100.00
29163;BME280;20331;53.144;8.208;2022-09-09T04:51:27;100591.47;;;14.66;100.00
29163;BME280;20331;53.144;8.208;2022-09-09T05:01:49;100599.69;;;14.52;100.00
29163;BME280;20331;53.144;8.208;2022-09-09T05:12:11;100609.03;;;14.65;100.00
29163;BME280;20331;53.144;8.208;2022-09-09T05:22:32;100616.06;;;14.65;100.00
29163;BME280;20331;53.144;8.208;2022-09-09T05:32:58;100622.16;;;14.65;100.00
29163;BME280;20331;53.144;8.208;2022-09-09T05:43:20;100621.34;;;14.74;100.00
29163;BME280;20331;53.144;8.208;2022-09-09T05:53:42;100631.41;;;14.90;100.00
29163;BME280;20331;53.144;8.208;2022-09-09T06:04:04;100631.72;;;14.96;100.00
29163;BME280;20331;53.144;8.208;2022-09-09T06:14:25;100638.88;;;15.24;100.00
29163;BME280;20331;53.144;8.208;2022-09-09T06:24:48;100628.56;;;15.32;100.00
29163;BME280;20331;53.144;8.208;2022-09-09T06:35:09;100624.47;;;15.58;100.00
29163;BME280;20331;53.144;8.208;2022-09-09T06:45:32;100626.41;;;15.56;100.00
29163;BME280;20331;53.144;8.208;2022-09-09T06:55:53;100626.28;;;15.67;100.00
29163;BME280;20331;53.144;8.208;2022-09-09T07:06:19;100628.97;;;15.86;100.00
29163;BME280;20331;53.144;8.208;2022-09-09T07:16:44;100627.84;;;16.17;100.00
29163;BME280;20331;53.144;8.208;2022-09-09T07:27:06;100640.88;;;16.46;100.00
29163;BME280;20331;53.144;8.208;2022-09-09T07:37:28;100642.09;;;16.61;100.00
29163;BME280;20331;53.144;8.208;2022-09-09T07:47:49;100647.72;;;16.85;100.00
29163;BME280;20331;53.144;8.208;2022-09-09T07:58:11;100655.16;;;16.99;100.00
29163;BME280;20331;53.144;8.208;2022-09-09T08:08:33;100656.25;;;17.06;100.00
29163;BME280;20331;53.144;8.208;2022-09-09T08:18:55;100649.25;;;17.24;100.00
29163;BME280;20331;53.144;8.208;2022-09-09T08:29:16;100653.13;;;17.56;100.00
29163;BME280;20331;53.144;8.208;2022-09-09T08:39:38;100653.53;;;17.61;100.00
29163;BME280;20331;53.144;8.208;2022-09-09T09:00:45;100664.13;;;18.48;98.44
29163;BME280;20331;53.144;8.208;2022-09-09T09:11:08;100678.44;;;17.94;100.00
29163;BME280;20331;53.144;8.208;2022-09-09T09:21:44;100689.97;;;18.37;96.32
29163;BME280;20331;53.144;8.208;2022-09-09T09:32:12;100672.19;;;18.64;98.41
29163;BME280;20331;53.144;8.208;2022-09-09T09:42:35;100684.91;;;18.86;94.05
29163;BME280;20331;53.144;8.208;2022-09-09T09:53:01;100674.88;;;19.15;90.50
29163;BME280;20331;53.144;8.208;2022-09-09T10:03:29;100672.63;;;19.28;90.23
29163;BME280;20331;53.144;8.208;2022-09-09T10:56:43;100668.06;;;19.95;86.20
29163;BME280;20331;53.144;8.208;2022-09-09T11:07:09;100667.16;;;20.68;81.80
29163;BME280;20331;53.144;8.208;2022-09-09T11:17:53;100681.25;;;20.60;81.56
29163;BME280;20331;53.144;8.208;2022-09-09T11:49:42;100663.38;;;20.46;83.68
29163;BME280;20331;53.144;8.208;2022-09-09T12:00:05;100665.47;;;19.54;100.00
29163;BME280;20331;53.144;8.208;2022-09-09T12:10:30;100654.94;;;19.62;100.00
29163;BME280;20331;53.144;8.208;2022-09-09T12:21:03;100658.50;;;19.45;100.00
29163;BME280;20331;53.144;8.208;2022-09-09T12:31:36;100671.59;;;19.21;100.00
29163;BME280;20331;53.144;8.208;2022-09-09T12:42:18;100669.41;;;19.17;100.00
29163;BME280;20331;53.144;8.208;2022-09-09T12:52:40;100657.94;;;19.08;100.00
29163;BME280;20331;53.144;8.208;2022-09-09T13:03:16;100644.84;;;19.24;100.00
29163;BME280;20331;53.144;8.208;2022-09-09T13:13:40;100640.41;;;19.33;96.34
29163;BME280;20331;53.144;8.208;2022-09-09T13:24:02;100637.78;;;19.07;100.00
29163;BME280;20331;53.144;8.208;2022-09-09T13:34:33;100661.84;;;18.96;100.00
29163;BME280;20331;53.144;8.208;2022-09-09T13:44:56;100661.44;;;19.34;97.11
29163;BME280;20331;53.144;8.208;2022-09-09T13:55:23;100666.81;;;19.58;98.81
29163;BME280;20331;53.144;8.208;2022-09-09T14:05:45;100665.97;;;19.16;96.51
29163;BME280;20331;53.144;8.208;2022-09-09T14:16:07;100660.06;;;19.05;93.70
29163;BME280;20331;53.144;8.208;2022-09-09T14:26:28;100647.34;;;19.00;94.32
29163;BME280;20331;53.144;8.208;2022-09-09T14:36:51;100650.41;;;19.13;90.95
29163;BME280;20331;53.144;8.208;2022-09-09T14:47:12;100648.03;;;19.10;89.20
29163;BME280;20331;53.144;8.208;2022-09-09T14:57:34;100621.31;;;18.88;92.78
29163;BME280;20331;53.144;8.208;2022-09-09T15:07:57;100636.50;;;19.11;93.95
29163;BME280;20331;53.144;8.208;2022-09-09T15:18:20;100643.91;;;18.82;99.92
29163;BME280;20331;53.144;8.208;2022-09-09T15:28:43;100639.78;;;18.80;90.79
29163;BME280;20331;53.144;8.208;2022-09-09T15:39:08;100632.75;;;18.88;87.48
29163;BME280;20331;53.144;8.208;2022-09-09T15:49:31;100627.31;;;19.15;86.35
29163;BME280;20331;53.144;8.208;2022-09-09T15:59:52;100624.22;;;19.02;93.37
29163;BME280;20331;53.144;8.208;2022-09-09T16:10:14;100640.72;;;19.63;85.93
29163;BME280;20331;53.144;8.208;2022-09-09T16:20:35;100654.41;;;19.17;84.66
29163;BME280;20331;53.144;8.208;2022-09-09T16:30:57;100644.31;;;19.13;87.18
29163;BME280;20331;53.144;8.208;2022-09-09T16:41:19;100655.09;;;19.27;87.90
29163;BME280;20331;53.144;8.208;2022-09-09T16:51:46;100668.84;;;19.05;89.36
29163;BME280;20331;53.144;8.208;2022-09-09T17:02:08;100720.69;;;18.63;93.40
29163;BME280;20331;53.144;8.208;2022-09-09T17:12:30;100726.03;;;18.02;100.00
29163;BME280;20331;53.144;8.208;2022-09-09T17:22:51;100720.84;;;17.83;100.00
29163;BME280;20331;53.144;8.208;2022-09-09T17:33:13;100702.66;;;17.62;100.00
29163;BME280;20331;53.144;8.208;2022-09-09T17:43:35;100712.09;;;17.55;100.00
29163;BME280;20331;53.144;8.208;2022-09-09T17:54:08;100720.50;;;17.32;100.00
29163;BME280;20331;53.144;8.208;2022-09-09T18:04:31;100720.84;;;17.10;100.00
29163;BME280;20331;53.144;8.208;2022-09-09T18:14:52;100727.50;;;17.14;100.00
29163;BME280;20331;53.144;8.208;2022-09-09T18:25:14;100725.34;;;16.81;100.00
29163;BME280;20331;53.144;8.208;2022-09-09T18:35:36;100727.16;;;16.71;100.00
29163;BME280;20331;53.144;8.208;2022-09-09T18:46:03;100730.34;;;16.56;100.00
29163;BME280;20331;53.144;8.208;2022-09-09T18:56:25;100733.66;;;16.48;100.00
29163;BME280;20331;53.144;8.208;2022-09-09T19:06:47;100732.69;;;16.40;100.00
29163;BME280;20331;53.144;8.208;2022-09-09T19:17:09;100745.13;;;16.29;100.00
29163;BME280;20331;53.144;8.208;2022-09-09T19:27:31;100753.59;;;16.32;100.00
29163;BME280;20331;53.144;8.208;2022-09-09T19:37:52;100763.94;;;16.24;100.00
29163;BME280;20331;53.144;8.208;2022-09-09T19:48:14;100775.47;;;16.33;100.00
29163;BME280;20331;53.144;8.208;2022-09-09T19:58:38;100770.47;;;16.30;100.00
29163;BME280;20331;53.144;8.208;2022-09-09T20:09:01;100761.31;;;16.15;100.00
29163;BME280;20331;53.144;8.208;2022-09-09T20:19:23;100767.66;;;16.12;100.00
29163;BME280;20331;53.144;8.208;2022-09-09T20:29:44;100760.47;;;16.24;100.00
29163;BME280;20331;53.144;8.208;2022-09-09T20:40:07;100752.69;;;16.03;100.00
29163;BME280;20331;53.144;8.208;2022-09-09T20:50:29;100765.16;;;16.01;100.00
29163;BME280;20331;53.144;8.208;2022-09-09T21:00:51;100765.81;;;15.94;100.00
29163;BME280;20331;53.144;8.208;2022-09-09T21:11:14;100779.47;;;15.88;100.00
29163;BME280;20331;53.144;8.208;2022-09-09T21:21:37;100785.03;;;15.85;100.00
29163;BME280;20331;53.144;8.208;2022-09-09T21:31:59;100785.28;;;15.82;100.00
29163;BME280;20331;53.144;8.208;2022-09-09T21:42:23;100789.41;;;15.75;100.00
29163;BME280;20331;53.144;8.208;2022-09-09T21:52:44;100786.91;;;15.73;100.00
29163;BME280;20331;53.144;8.208;2022-09-09T22:03:06;100791.66;;;15.89;100.00
29163;BME280;20331;53.144;8.208;2022-09-09T22:13:28;100792.50;;;15.89;100.00
29163;BME280;20331;53.144;8.208;2022-09-09T22:23:55;100783.13;;;15.96;100.00
29163;BME280;20331;53.144;8.208;2022-09-09T22:34:17;100791.59;;;16.00;100.00
29163;BME280;20331;53.144;8.208;2022-09-09T22:44:39;100798.19;;;15.94;100.00
29163;BME280;20331;53.144;8.208;2022-09-09T22:55:02;100806.09;;;16.04;100.00
29163;BME280;20331;53.144;8.208;2022-09-09T23:05:23;100811.88;;;15.88;100.00
29163;BME280;20331;53.144;8.208;2022-09-09T23:15:47;100805.78;;;15.88;100.00
29163;BME280;20331;53.144;8.208;2022-09-09T23:26:12;100811.03;;;15.88;100.00
29163;BME280;20331;53.144;8.208;2022-09-09T23:36:33;100811.84;;;15.79;100.00
29163;BME280;20331;53.144;8.208;2022-09-09T23:46:55;100806.06;;;15.85;100.00
29163;BME280;20331;53.144;8.208;2022-09-09T23:57:17;100803.91;;;15.69;100.00
